createdAt,value
2019-05-14T00:00:44.024Z,101062.52
2019-05-14T00:03:15.769Z,101057.06
2019-05-14T00:05:47.108Z,101056.72
2019-05-14T00:08:18.427Z,101064.73
2019-05-14T00:10:51.810Z,101059.62
2019-05-14T00:13:22.766Z,101062.17
2019-05-14T00:15:54.168Z,101062.18
2019-05-14T00:18:25.706Z,101066.78
2019-05-14T00:20:57.399Z,101064.73
2019-05-14T00:23:28.648Z,101066.10
2019-05-14T00:26:01.672Z,101062.84
2019-05-14T00:28:33.233Z,101068.67
2019-05-14T00:31:05.094Z,101065.25
2019-05-14T00:33:36.617Z,101063.05
2019-05-14T00:36:08.144Z,101059.11
2019-05-14T00:38:41.783Z,101055.50
2019-05-14T00:41:12.781Z,101055.86
2019-05-14T00:43:44.236Z,101062.88
2019-05-14T00:46:15.572Z,101061.31
2019-05-14T00:48:47.023Z,101057.39
2019-05-14T00:51:18.464Z,101060.63
2019-05-14T00:53:51.588Z,101060.99
2019-05-14T00:56:23.016Z,101057.41
2019-05-14T00:58:54.421Z,101059.80
2019-05-14T01:01:25.823Z,101058.25
2019-05-14T01:03:57.318Z,101057.73
2019-05-14T01:06:31.280Z,101054.65
2019-05-14T01:09:01.682Z,101055.69
2019-05-14T01:11:33.819Z,101058.43
2019-05-14T01:14:05.221Z,101057.23
2019-05-14T01:16:36.708Z,101067.47
2019-05-14T01:19:08.011Z,101068.67
2019-05-14T01:21:41.609Z,101066.44
2019-05-14T01:24:12.695Z,101068.50
2019-05-14T01:26:44.200Z,101066.44
2019-05-14T01:29:15.796Z,101070.05
2019-05-14T01:31:47.129Z,101064.56
2019-05-14T01:34:18.533Z,101065.09
2019-05-14T01:36:50.024Z,101063.38
2019-05-14T01:39:21.888Z,101064.05
2019-05-14T01:41:53.404Z,101064.58
2019-05-14T01:44:24.778Z,101069.84
2019-05-14T01:46:57.288Z,101066.26
2019-05-14T01:49:28.826Z,101070.05
2019-05-14T01:52:01.787Z,101065.95
2019-05-14T01:54:33.457Z,101068.83
2019-05-14T01:57:04.812Z,101064.23
2019-05-14T01:59:36.258Z,101068.31
2019-05-14T02:02:07.615Z,101067.13
2019-05-14T02:04:38.961Z,101066.45
2019-05-14T02:07:11.547Z,101070.88
2019-05-14T02:09:43.226Z,101066.25
2019-05-14T02:12:15.679Z,101064.39
2019-05-14T02:14:47.231Z,101068.33
2019-05-14T02:17:18.671Z,101067.48
2019-05-14T02:19:51.537Z,101061.49
2019-05-14T02:22:23.152Z,101067.98
2019-05-14T02:24:54.560Z,101063.02
2019-05-14T02:27:25.831Z,101065.77
2019-05-14T02:29:57.257Z,101063.34
2019-05-14T02:32:29.817Z,101059.72
2019-05-14T02:35:01.389Z,101056.58
2019-05-14T02:37:32.757Z,101063.17
2019-05-14T02:40:09.620Z,101058.33
2019-05-14T02:42:40.419Z,101060.42
2019-05-14T02:45:12.498Z,101059.27
2019-05-14T02:47:43.875Z,101053.05
2019-05-14T02:50:15.420Z,101054.02
2019-05-14T02:52:49.719Z,101049.07
2019-05-14T02:55:20.153Z,101047.52
2019-05-14T02:57:51.595Z,101050.23
2019-05-14T03:00:23.172Z,101052.44
2019-05-14T03:02:54.531Z,101062.16
2019-05-14T03:05:29.324Z,101055.09
2019-05-14T03:07:59.951Z,101053.34
2019-05-14T03:10:31.553Z,101047.41
2019-05-14T03:13:03.002Z,101048.23
2019-05-14T03:15:34.440Z,101045.57
2019-05-14T03:18:05.775Z,101041.23
2019-05-14T03:20:39.117Z,101042.87
2019-05-14T03:23:18.161Z,101037.75
2019-05-14T03:25:43.480Z,101038.88
2019-05-14T03:28:14.863Z,101044.80
2019-05-14T03:30:51.380Z,101034.81
2019-05-14T03:33:21.882Z,101043.69
2019-05-14T03:36:01.591Z,101049.75
2019-05-14T03:38:29.347Z,101051.29
2019-05-14T03:41:00.515Z,101041.86
2019-05-14T03:43:31.993Z,101045.75
2019-05-14T03:46:03.433Z,101038.80
2019-05-14T03:48:34.877Z,101041.61
2019-05-14T03:51:08.958Z,101042.05
2019-05-14T03:53:55.081Z,101050.24
2019-05-14T03:56:12.456Z,101049.38
2019-05-14T03:58:43.853Z,101048.08
2019-05-14T04:01:15.454Z,101047.86
2019-05-14T04:03:50.051Z,101053.63
2019-05-14T04:06:19.580Z,101053.81
2019-05-14T04:08:51.816Z,101048.94
2019-05-14T04:11:25.469Z,101052.03
2019-05-14T04:14:00.381Z,101058.83
2019-05-14T04:16:34.643Z,101048.05
2019-05-14T04:19:09.990Z,101054.13
2019-05-14T04:21:41.846Z,101052.36
2019-05-14T04:24:15.073Z,101050.02
2019-05-14T04:27:02.074Z,101058.69
2019-05-14T04:29:25.027Z,101053.41
2019-05-14T04:32:00.210Z,101051.60
2019-05-14T04:34:31.210Z,101056.32
2019-05-14T04:37:03.488Z,101056.53
2019-05-14T04:39:34.933Z,101046.52
2019-05-14T04:42:09.265Z,101055.47
2019-05-14T04:44:40.520Z,101055.78
2019-05-14T04:47:26.313Z,101049.23
2019-05-14T04:49:44.573Z,101046.14
2019-05-14T04:52:20.252Z,101049.73
2019-05-14T04:54:50.345Z,101047.14
2019-05-14T04:57:25.491Z,101043.56
2019-05-14T04:59:55.118Z,101054.64
2019-05-14T05:02:29.822Z,101051.39
2019-05-14T05:04:59.654Z,101048.59
2019-05-14T05:07:31.097Z,101046.53
2019-05-14T05:10:02.488Z,101056.55
2019-05-14T05:12:33.803Z,101057.11
2019-05-14T05:15:09.433Z,101053.14
2019-05-14T05:17:48.014Z,101056.11
2019-05-14T05:20:14.604Z,101053.87
2019-05-14T05:22:48.365Z,101058.34
2019-05-14T05:25:19.052Z,101058.69
2019-05-14T05:27:50.444Z,101065.52
2019-05-14T05:30:21.999Z,101053.92
2019-05-14T05:32:53.421Z,101056.40
2019-05-14T05:35:25.208Z,101059.34
2019-05-14T05:37:58.344Z,101055.09
2019-05-14T05:40:29.895Z,101062.95
2019-05-14T05:43:01.388Z,101063.30
2019-05-14T05:45:32.832Z,101065.38
2019-05-14T05:48:04.154Z,101061.39
2019-05-14T05:50:35.529Z,101060.75
2019-05-14T05:53:09.010Z,101061.61
2019-05-14T05:55:39.824Z,101059.66
2019-05-14T05:58:11.280Z,101058.00
2019-05-14T06:00:42.655Z,101063.17
2019-05-14T06:03:13.965Z,101063.25
2019-05-14T06:05:45.372Z,101066.40
2019-05-14T06:08:18.900Z,101062.27
2019-05-14T06:10:49.892Z,101061.73
2019-05-14T06:13:21.421Z,101062.62
2019-05-14T06:15:52.786Z,101060.34
2019-05-14T06:18:24.154Z,101060.63
2019-05-14T06:20:55.605Z,101059.32
2019-05-14T06:23:28.425Z,101059.43
2019-05-14T06:26:00.300Z,101059.70
2019-05-14T06:28:33.660Z,101058.10
2019-05-14T06:31:05.339Z,101056.95
2019-05-14T06:33:39.121Z,101050.98
2019-05-14T06:36:14.182Z,101054.77
2019-05-14T06:38:43.645Z,101052.64
2019-05-14T06:41:15.036Z,101055.66
2019-05-14T06:43:48.734Z,101058.02
2019-05-14T06:46:19.565Z,101050.87
2019-05-14T06:48:50.898Z,101060.84
2019-05-14T06:51:22.383Z,101064.36
2019-05-14T06:53:53.791Z,101062.05
2019-05-14T06:56:25.240Z,101068.86
2019-05-14T06:58:58.510Z,101063.30
2019-05-14T07:01:32.639Z,101063.67
2019-05-14T07:04:04.399Z,101056.44
2019-05-14T07:06:51.818Z,101055.77
2019-05-14T07:09:38.433Z,101064.44
2019-05-14T07:12:14.432Z,101060.52
2019-05-14T07:14:48.212Z,101059.05
2019-05-14T07:17:19.911Z,101057.09
2019-05-14T07:19:51.425Z,101050.80
2019-05-14T07:22:22.890Z,101046.90
2019-05-14T07:24:54.277Z,101050.59
2019-05-14T07:27:28.258Z,101045.31
2019-05-14T07:29:59.762Z,101038.95
2019-05-14T07:32:31.087Z,101036.09
2019-05-14T07:35:02.453Z,101027.47
2019-05-14T07:37:34.012Z,101025.61
2019-05-14T07:40:08.571Z,101023.47
2019-05-14T07:42:39.637Z,101018.19
2019-05-14T07:45:11.256Z,101024.98
2019-05-14T07:47:42.722Z,101020.41
2019-05-14T07:50:14.767Z,101015.73
2019-05-14T07:52:46.274Z,101022.40
2019-05-14T07:55:18.610Z,101016.98
2019-05-14T07:57:50.472Z,101023.52
2019-05-14T08:00:22.943Z,101018.39
2019-05-14T08:02:54.354Z,101018.28
2019-05-14T08:05:25.837Z,101017.97
2019-05-14T08:07:58.577Z,101015.80
2019-05-14T08:10:30.319Z,101021.45
2019-05-14T08:13:01.731Z,101014.78
2019-05-14T08:15:34.283Z,101014.47
2019-05-14T08:18:07.909Z,101007.70
2019-05-14T08:20:38.850Z,101009.20
2019-05-14T08:23:10.433Z,101003.73
2019-05-14T08:25:41.946Z,101005.63
2019-05-14T08:28:13.272Z,101002.64
2019-05-14T08:30:44.633Z,101003.34
2019-05-14T08:33:18.273Z,101000.94
2019-05-14T08:35:49.043Z,101002.02
2019-05-14T08:38:20.705Z,100988.12
2019-05-14T08:40:52.293Z,101002.36
2019-05-14T08:43:23.824Z,101001.95
2019-05-14T08:45:55.150Z,101006.06
2019-05-14T08:48:29.306Z,100999.26
2019-05-14T08:50:58.917Z,100997.09
2019-05-14T08:53:30.009Z,100997.16
2019-05-14T08:56:01.513Z,101000.55
2019-05-14T08:58:32.968Z,100999.42
2019-05-14T09:01:04.545Z,100997.36
2019-05-14T09:03:36.066Z,100990.63
2019-05-14T09:06:09.347Z,100990.98
2019-05-14T09:08:41.812Z,100986.41
2019-05-14T09:11:13.741Z,100984.00
2019-05-14T09:13:45.165Z,100986.88
2019-05-14T09:19:15.510Z,100980.09
2019-05-14T09:21:49.368Z,100978.41
2019-05-14T09:24:19.919Z,100980.21
2019-05-14T09:26:51.374Z,100961.98
2019-05-14T09:29:26.119Z,100967.70
2019-05-14T09:31:58.975Z,100966.70
2019-05-14T09:34:30.031Z,100968.25
2019-05-14T09:37:01.459Z,100963.91
2019-05-14T09:39:32.836Z,100971.47
2019-05-14T09:42:04.176Z,100967.52
2019-05-14T09:44:35.660Z,100962.28
2019-05-14T09:47:08.612Z,100966.67
2019-05-14T09:49:41.362Z,100969.72
2019-05-14T09:52:12.823Z,100966.86
2019-05-14T09:54:44.349Z,100964.66
2019-05-14T09:57:15.816Z,100986.98
2019-05-14T09:59:47.985Z,100969.41
2019-05-14T10:02:19.647Z,100974.67
2019-05-14T10:04:51.101Z,100964.28
2019-05-14T10:07:22.507Z,100979.91
2019-05-14T10:09:54.078Z,100974.05
2019-05-14T10:12:25.464Z,100972.11
2019-05-14T10:14:59.137Z,100969.00
2019-05-14T10:17:29.782Z,100966.67
2019-05-14T10:20:01.116Z,100966.73
2019-05-14T10:22:33.409Z,100960.98
2019-05-14T10:25:05.565Z,100969.82
2019-05-14T10:27:36.950Z,100964.14
2019-05-14T10:30:10.521Z,100964.42
2019-05-14T10:32:42.083Z,100960.38
2019-05-14T10:35:15.385Z,100964.68
2019-05-14T10:37:46.795Z,100972.20
2019-05-14T10:40:20.045Z,100972.84
2019-05-14T10:42:51.478Z,100962.27
2019-05-14T10:45:22.923Z,100970.52
2019-05-14T10:47:54.374Z,100962.16
2019-05-14T10:50:25.721Z,100955.96
2019-05-14T10:52:59.487Z,100959.73
2019-05-14T10:55:31.366Z,100957.89
2019-05-14T10:58:02.905Z,100970.63
2019-05-14T11:00:34.414Z,100959.73
2019-05-14T11:03:05.730Z,100959.80
2019-05-14T11:05:41.295Z,100956.69
2019-05-14T11:08:12.022Z,100960.21
2019-05-14T11:10:42.807Z,100958.94
2019-05-14T11:13:14.316Z,100954.41
2019-05-14T11:15:48.620Z,100960.64
2019-05-14T11:18:20.147Z,100957.15
2019-05-14T11:20:51.857Z,100963.43
2019-05-14T11:23:23.499Z,100951.08
2019-05-14T11:25:54.955Z,100956.38
2019-05-14T11:28:28.707Z,100958.48
2019-05-14T11:30:59.693Z,100957.14
2019-05-14T11:33:31.048Z,100959.81
2019-05-14T11:36:02.497Z,100961.19
2019-05-14T11:38:37.495Z,100963.21
2019-05-14T11:41:06.261Z,100963.48
2019-05-14T11:43:39.837Z,100958.58
2019-05-14T11:46:09.859Z,100960.95
2019-05-14T11:48:41.107Z,100949.80
2019-05-14T11:51:12.477Z,100951.91
2019-05-14T11:53:43.881Z,100948.82
2019-05-14T11:56:15.230Z,100945.61
2019-05-14T11:58:46.604Z,100947.68
2019-05-14T12:01:18.921Z,100951.97
2019-05-14T12:03:50.942Z,100930.81
2019-05-14T12:06:22.365Z,100941.42
2019-05-14T12:08:53.817Z,100931.41
2019-05-14T12:11:25.148Z,100940.53
2019-05-14T12:13:59.649Z,100934.48
2019-05-14T12:16:29.478Z,100934.19
2019-05-14T12:19:00.727Z,100928.13
2019-05-14T12:21:32.208Z,100925.14
2019-05-14T12:24:06.012Z,100925.69
2019-05-14T12:26:38.529Z,100927.69
2019-05-14T12:29:10.271Z,100931.77
2019-05-14T12:31:41.807Z,100924.31
2019-05-14T12:34:13.235Z,100924.67
2019-05-14T12:36:44.604Z,100917.81
2019-05-14T12:39:18.609Z,100917.07
2019-05-14T12:41:48.971Z,100910.51
2019-05-14T12:44:21.888Z,100915.36
2019-05-14T12:46:53.437Z,100912.08
2019-05-14T12:49:25.024Z,100921.59
2019-05-14T12:51:59.140Z,100908.80
2019-05-14T12:54:29.969Z,100906.70
2019-05-14T12:57:01.577Z,100908.13
2019-05-14T12:59:33.231Z,100900.99
2019-05-14T13:02:04.879Z,100902.89
2019-05-14T13:04:36.393Z,100907.79
2019-05-14T13:07:09.119Z,100906.89
2019-05-14T13:09:40.830Z,100910.59
2019-05-14T13:12:12.420Z,100910.12
2019-05-14T13:14:43.854Z,100906.30
2019-05-14T13:17:15.349Z,100902.27
2019-05-14T13:19:48.715Z,100907.25
2019-05-14T13:22:36.441Z,100906.83
2019-05-14T13:24:52.056Z,100898.68
2019-05-14T13:27:23.345Z,100903.75
2019-05-14T13:29:54.798Z,100894.30
2019-05-14T13:32:28.735Z,100900.66
2019-05-14T13:34:59.184Z,100904.79
2019-05-14T13:37:31.545Z,100903.75
2019-05-14T13:40:03.636Z,100898.52
2019-05-14T13:42:35.226Z,100891.55
2019-05-14T13:45:10.249Z,100891.98
2019-05-14T13:47:42.088Z,100894.30
2019-05-14T13:50:14.170Z,100886.53
2019-05-14T13:53:02.073Z,100886.85
2019-05-14T13:55:20.175Z,100893.53
2019-05-14T13:57:51.631Z,100887.17
2019-05-14T14:00:23.797Z,100888.91
2019-05-14T14:02:55.281Z,100891.16
2019-05-14T14:05:26.622Z,100887.92
2019-05-14T14:07:59.013Z,100889.78
2019-05-14T14:10:36.201Z,100883.80
2019-05-14T14:13:06.688Z,100877.39
2019-05-14T14:15:38.472Z,100879.92
2019-05-14T14:18:09.190Z,100880.27
2019-05-14T14:20:40.625Z,100881.76
2019-05-14T14:23:21.797Z,100882.06
2019-05-14T14:25:44.496Z,100883.82
2019-05-14T14:28:15.613Z,100886.99
2019-05-14T14:30:49.174Z,100884.64
2019-05-14T14:33:19.489Z,100880.16
2019-05-14T14:35:50.670Z,100879.29
2019-05-14T14:38:21.994Z,100878.67
2019-05-14T14:40:53.358Z,100876.72
2019-05-14T14:43:24.768Z,100883.03
2019-05-14T14:45:59.374Z,100881.52
2019-05-14T14:48:30.709Z,100877.11
2019-05-14T14:51:02.391Z,100872.02
2019-05-14T14:53:51.988Z,100884.54
2019-05-14T14:56:09.370Z,100884.31
2019-05-14T14:58:39.439Z,100887.22
2019-05-14T15:01:10.816Z,100893.66
2019-05-14T15:03:42.218Z,100895.63
2019-05-14T15:06:13.844Z,100894.16
2019-05-14T15:08:45.359Z,100891.88
2019-05-14T15:11:16.808Z,100898.95
2019-05-14T15:13:48.494Z,100893.81
2019-05-14T15:16:20.464Z,100896.02
2019-05-14T15:18:51.979Z,100898.41
2019-05-14T15:21:23.434Z,100898.80
2019-05-14T15:24:07.148Z,100893.92
2019-05-14T15:26:28.885Z,100898.16
2019-05-14T15:29:00.371Z,100903.62
2019-05-14T15:31:32.148Z,100905.14
2019-05-14T15:34:03.758Z,100898.72
2019-05-14T15:36:35.107Z,100904.34
2019-05-14T15:39:09.718Z,100900.43
2019-05-14T15:41:41.195Z,100898.05
2019-05-14T15:44:12.536Z,100897.50
2019-05-14T15:46:43.884Z,100900.20
2019-05-14T15:49:15.350Z,100894.97
2019-05-14T15:51:46.784Z,100905.88
2019-05-14T15:54:36.125Z,100910.91
2019-05-14T15:56:51.113Z,100902.83
2019-05-14T15:59:22.470Z,100905.06
2019-05-14T16:01:53.986Z,100902.67
2019-05-14T16:04:25.375Z,100907.73
2019-05-14T16:06:58.635Z,100912.52
2019-05-14T16:09:30.539Z,100907.81
2019-05-14T16:12:01.970Z,100914.73
2019-05-14T16:14:33.432Z,100901.08
2019-05-14T16:17:04.984Z,100913.06
2019-05-14T16:19:36.325Z,100914.30
2019-05-14T16:22:09.773Z,100908.13
2019-05-14T16:24:55.766Z,100908.71
2019-05-14T16:27:13.059Z,100912.84
2019-05-14T16:29:46.004Z,100911.14
2019-05-14T16:32:17.689Z,100911.99
2019-05-14T16:34:49.272Z,100914.97
2019-05-14T16:37:21.314Z,100917.47
2019-05-14T16:39:52.770Z,100922.17
2019-05-14T16:42:25.232Z,100919.64
2019-05-14T16:44:56.659Z,100916.05
2019-05-14T16:47:28.758Z,100915.14
2019-05-14T16:50:00.407Z,100918.16
2019-05-14T16:52:31.742Z,100913.41
2019-05-14T16:55:18.309Z,100921.72
2019-05-14T16:57:38.667Z,100916.79
2019-05-14T17:00:10.582Z,100929.83
2019-05-14T17:02:41.883Z,100933.82
2019-05-14T17:05:13.392Z,100936.08
2019-05-14T17:07:44.770Z,100934.92
2019-05-14T17:10:18.194Z,100933.77
2019-05-14T17:12:56.687Z,100936.26
2019-05-14T17:15:21.392Z,100926.70
2019-05-14T17:17:52.919Z,100924.68
2019-05-14T17:22:55.906Z,100933.92
2019-05-14T17:25:30.342Z,100939.11
2019-05-14T17:28:00.228Z,100937.84
2019-05-14T17:30:31.783Z,100938.53
2019-05-14T17:33:03.380Z,100950.16
2019-05-14T17:35:34.819Z,100951.94
2019-05-14T17:38:06.133Z,100950.05
2019-05-14T17:40:39.683Z,100948.70
2019-05-14T17:43:10.589Z,100953.24
2019-05-14T17:45:42.089Z,100949.36
2019-05-14T17:48:28.939Z,100951.50
2019-05-14T17:51:00.496Z,100949.95
2019-05-14T17:53:31.988Z,100956.63
2019-05-14T17:56:03.301Z,100951.11
2019-05-14T17:58:34.675Z,100943.47
2019-05-14T18:01:08.807Z,100950.79
2019-05-14T18:03:39.982Z,100954.09
2019-05-14T18:06:12.001Z,100957.92
2019-05-14T18:08:43.458Z,100952.49
2019-05-14T18:11:14.854Z,100959.07
2019-05-14T18:13:48.472Z,100960.13
2019-05-14T18:16:20.367Z,100963.94
2019-05-14T18:18:51.818Z,100959.14
2019-05-14T18:21:23.318Z,100958.83
2019-05-14T18:23:58.428Z,100957.14
2019-05-14T18:26:30.821Z,100952.03
2019-05-14T18:29:04.511Z,100961.69
2019-05-14T18:31:35.434Z,100949.69
2019-05-14T18:34:06.984Z,100943.75
2019-05-14T18:36:39.516Z,100952.27
2019-05-14T18:39:28.342Z,100954.46
2019-05-14T18:42:00.812Z,100964.53
2019-05-14T18:44:32.514Z,100953.52
2019-05-14T18:47:03.999Z,100958.20
2019-05-14T18:49:35.377Z,100955.22
2019-05-14T18:52:08.936Z,100965.59
2019-05-14T18:54:41.266Z,100960.39
2019-05-14T18:57:18.032Z,100948.20
2019-05-14T18:59:49.792Z,100958.19
2019-05-14T19:02:21.225Z,100959.02
2019-05-14T19:05:08.566Z,100961.66
2019-05-14T19:07:51.420Z,100967.74
2019-05-14T19:10:22.895Z,100964.41
2019-05-14T19:12:54.551Z,100964.06
2019-05-14T19:15:26.014Z,100956.74
2019-05-14T19:18:00.996Z,100957.72
2019-05-14T19:20:29.865Z,100954.53
2019-05-14T19:23:01.166Z,100958.10
2019-05-14T19:25:32.688Z,100947.61
2019-05-14T19:28:04.147Z,100952.27
2019-05-14T19:30:37.974Z,100954.51
2019-05-14T19:33:08.708Z,100952.18
2019-05-14T19:35:40.171Z,100956.53
2019-05-14T19:38:14.367Z,100959.37
2019-05-14T19:40:48.248Z,100951.00
2019-05-14T19:43:19.179Z,100959.86
2019-05-14T19:45:50.701Z,100953.59
2019-05-14T19:48:22.302Z,100952.30
2019-05-14T19:50:53.723Z,100950.89
2019-05-14T19:53:25.044Z,100948.54
2019-05-14T19:55:59.195Z,100955.22
2019-05-14T19:58:29.708Z,100950.13
2019-05-14T20:01:02.292Z,100944.73
2019-05-14T20:03:33.859Z,100947.70
2019-05-14T20:06:08.816Z,100944.92
2019-05-14T20:08:39.557Z,100953.98
2019-05-14T20:11:11.000Z,100954.17
2019-05-14T20:13:42.395Z,100947.97
2019-05-14T20:16:13.851Z,100948.73
2019-05-14T20:18:45.192Z,100943.62
2019-05-14T20:21:16.627Z,100941.59
2019-05-14T20:23:48.271Z,100934.59
2019-05-14T20:26:19.887Z,100945.36
2019-05-14T20:28:51.308Z,100947.34
2019-05-14T20:31:22.735Z,100939.91
2019-05-14T20:33:54.215Z,100944.22
2019-05-14T20:36:28.077Z,100946.23
2019-05-14T20:38:59.016Z,100944.59
2019-05-14T20:41:30.394Z,100949.16
2019-05-14T20:44:01.846Z,100949.22
2019-05-14T20:46:33.162Z,100945.16
2019-05-14T20:49:05.036Z,100939.53
2019-05-14T20:51:38.677Z,100941.30
2019-05-14T20:54:09.404Z,100943.67
2019-05-14T20:56:40.844Z,100943.67
2019-05-14T20:59:12.293Z,100949.16
2019-05-14T21:01:43.607Z,100948.77
2019-05-14T21:04:14.992Z,100947.51
2019-05-14T21:06:48.462Z,100953.37
2019-05-14T21:09:19.482Z,100945.27
2019-05-14T21:11:50.759Z,100943.68
2019-05-14T21:14:25.090Z,100945.77
2019-05-14T21:16:55.190Z,100944.72
2019-05-14T21:19:28.316Z,100953.74
2019-05-14T21:22:01.217Z,100950.32
2019-05-14T21:24:32.695Z,100950.96
2019-05-14T21:27:04.102Z,100953.71
2019-05-14T21:29:35.446Z,100948.55
2019-05-14T21:32:08.542Z,100948.21
2019-05-14T21:34:39.964Z,100955.43
2019-05-14T21:37:11.569Z,100960.81
2019-05-14T21:39:43.132Z,100953.94
2019-05-14T21:42:14.554Z,100959.61
2019-05-14T21:44:45.994Z,100948.37
2019-05-14T21:47:17.449Z,100949.67
2019-05-14T21:49:50.375Z,100947.18
2019-05-14T21:52:22.702Z,100950.97
2019-05-14T21:54:54.146Z,100943.36
2019-05-14T21:57:28.262Z,100946.28
2019-05-14T21:59:59.002Z,100944.20
2019-05-14T22:02:30.671Z,100945.70
2019-05-14T22:05:03.391Z,100939.44
2019-05-14T22:07:34.814Z,100934.45
2019-05-14T22:10:07.810Z,100936.82
2019-05-14T22:12:39.600Z,100936.57
2019-05-14T22:15:11.483Z,100926.30
2019-05-14T22:17:42.787Z,100924.52
2019-05-14T22:20:14.809Z,100934.79
2019-05-14T22:22:48.207Z,100930.38
2019-05-14T22:25:19.188Z,100925.59
2019-05-14T22:27:50.395Z,100927.97
2019-05-14T22:30:21.842Z,100925.67
2019-05-14T22:32:53.218Z,100935.75
2019-05-14T22:35:24.635Z,100932.09
2019-05-14T22:37:56.096Z,100929.63
2019-05-14T22:40:29.218Z,100932.97
2019-05-14T22:43:00.476Z,100923.43
2019-05-14T22:45:31.796Z,100922.89
2019-05-14T22:48:03.289Z,100930.72
2019-05-14T22:50:34.676Z,100932.91
2019-05-14T22:53:05.896Z,100929.45
2019-05-14T22:55:38.230Z,100923.64
2019-05-14T22:58:23.614Z,100926.05
2019-05-14T23:00:46.995Z,100921.42
2019-05-14T23:03:15.733Z,100926.84
2019-05-14T23:05:48.514Z,100929.53
2019-05-14T23:08:19.896Z,100922.80
2019-05-14T23:10:51.214Z,100922.84
2019-05-14T23:13:22.523Z,100929.99
2019-05-14T23:15:53.819Z,100927.83
2019-05-14T23:18:25.014Z,100933.23
2019-05-14T23:20:58.692Z,100933.67
2019-05-14T23:23:29.346Z,100934.98
2019-05-14T23:26:00.722Z,100928.69
2019-05-14T23:28:41.873Z,100930.82
2019-05-14T23:31:05.079Z,100927.30
2019-05-14T23:33:38.633Z,100928.07
2019-05-14T23:36:09.560Z,100936.92
2019-05-14T23:38:41.068Z,100932.56
2019-05-14T23:41:12.545Z,100938.55
2019-05-14T23:43:43.842Z,100940.11
2019-05-14T23:46:15.116Z,100939.89
2019-05-14T23:48:48.470Z,100937.55
2019-05-14T23:51:19.555Z,100936.88
2019-05-14T23:53:50.718Z,100940.96
2019-05-14T23:56:22.018Z,100935.64
2019-05-14T23:58:57.906Z,100930.28
